createdAt,value
2018-11-28T00:01:02.595Z,97461.77
2018-11-28T00:05:57.039Z,97459.31
2018-11-28T00:10:51.439Z,97452.92
2018-11-28T00:15:45.839Z,97454.26
2018-11-28T00:20:40.239Z,97456.17
2018-11-28T00:25:34.642Z,97458.77
2018-11-28T00:30:29.047Z,97457.62
2018-11-28T00:35:24.759Z,97446.21
2018-11-28T00:40:21.023Z,97454.33
2018-11-28T00:45:19.417Z,97456.64
2018-11-28T00:50:16.580Z,97457.91
2018-11-28T00:55:16.298Z,97456.50
2018-11-28T01:00:24.600Z,97455.88
2018-11-28T01:05:19.195Z,97454.80
2018-11-28T01:10:16.110Z,97457.06
2018-11-28T01:15:12.391Z,97463.73
2018-11-28T01:20:12.595Z,97455.56
2018-11-28T01:25:10.221Z,97469.70
2018-11-28T01:30:07.979Z,97471.00
2018-11-28T01:35:02.438Z,97472.30
2018-11-28T01:39:56.894Z,97476.22
2018-11-28T01:44:51.407Z,97472.00
2018-11-28T01:49:45.834Z,97466.62
2018-11-28T01:54:40.266Z,97468.91
2018-11-28T01:59:34.671Z,97469.41
2018-11-28T02:04:29.163Z,97461.58
2018-11-28T02:09:23.583Z,97459.92
2018-11-28T02:14:17.979Z,97456.67
2018-11-28T02:19:12.454Z,97462.78
2018-11-28T02:24:07.270Z,97463.42
2018-11-28T02:29:01.722Z,97456.39
2018-11-28T02:33:56.127Z,97453.97
2018-11-28T02:38:50.541Z,97454.98
2018-11-28T02:43:45.019Z,97454.98
2018-11-28T02:48:39.477Z,97454.33
2018-11-28T02:53:33.943Z,97450.86
2018-11-28T02:58:28.367Z,97455.27
2018-11-28T03:03:22.809Z,97457.36
2018-11-28T03:08:17.219Z,97455.59
2018-11-28T03:13:11.623Z,97450.07
2018-11-28T03:18:06.853Z,97451.84
2018-11-28T03:23:01.250Z,97450.02
2018-11-28T03:27:55.648Z,97456.02
2018-11-28T03:32:50.171Z,97450.63
2018-11-28T03:37:44.863Z,97446.09
2018-11-28T03:42:39.434Z,97448.03
2018-11-28T03:47:33.881Z,97455.73
2018-11-28T03:52:28.485Z,97452.67
2018-11-28T03:57:22.910Z,97463.09
2018-11-28T04:02:17.375Z,97452.67
2018-11-28T04:07:11.852Z,97447.80
2018-11-28T04:12:06.981Z,97449.09
2018-11-28T04:17:01.441Z,97454.98
2018-11-28T04:21:55.887Z,97437.78
2018-11-28T04:26:50.513Z,97451.69
2018-11-28T04:31:45.006Z,97452.20
2018-11-28T04:36:39.436Z,97450.39
2018-11-28T04:41:33.864Z,97448.45
2018-11-28T04:46:28.276Z,97450.90
2018-11-28T04:51:22.724Z,97460.32
2018-11-28T04:56:17.140Z,97459.49
2018-11-28T05:01:11.558Z,97454.16
2018-11-28T05:06:06.053Z,97450.29
2018-11-28T05:11:00.540Z,97451.45
2018-11-28T05:15:55.019Z,97459.59
2018-11-28T05:20:49.438Z,97461.88
2018-11-28T05:25:43.847Z,97455.20
2018-11-28T05:30:38.265Z,97456.64
2018-11-28T05:35:36.328Z,97462.20
2018-11-28T05:40:30.840Z,97469.63
2018-11-28T05:45:25.307Z,97475.16
2018-11-28T05:50:22.247Z,97466.62
2018-11-28T05:55:18.167Z,97475.25
2018-11-28T06:00:37.241Z,97470.85
2018-11-28T06:05:31.764Z,97481.74
2018-11-28T06:10:26.222Z,97480.15
2018-11-28T06:15:20.755Z,97483.72
2018-11-28T06:20:16.306Z,97486.02
2018-11-28T06:25:16.133Z,97494.48
2018-11-28T06:30:13.510Z,97489.31
2018-11-28T06:35:09.586Z,97495.66
2018-11-28T06:40:04.095Z,97495.84
2018-11-28T06:44:58.568Z,97502.55
2018-11-28T06:49:53.016Z,97505.00
2018-11-28T06:54:47.505Z,97512.95
2018-11-28T06:59:41.983Z,97512.95
2018-11-28T07:04:36.633Z,97526.57
2018-11-28T07:09:31.115Z,97521.09
2018-11-28T07:14:25.649Z,97521.88
2018-11-28T07:19:20.260Z,97527.72
2018-11-28T07:24:16.094Z,97524.81
2018-11-28T07:29:10.799Z,97519.44
2018-11-28T07:34:05.787Z,97535.12
2018-11-28T07:39:00.302Z,97542.30
2018-11-28T07:43:55.090Z,97541.59
2018-11-28T07:48:50.055Z,97557.20
2018-11-28T07:53:44.578Z,97555.34
2018-11-28T07:58:42.216Z,97558.41
2018-11-28T08:03:36.835Z,97566.17
2018-11-28T08:08:35.536Z,97562.72
2018-11-28T08:13:30.120Z,97565.00
2018-11-28T08:18:24.599Z,97563.49
2018-11-28T08:23:19.060Z,97561.19
2018-11-28T08:28:14.784Z,97568.19
2018-11-28T08:33:09.767Z,97558.24
2018-11-28T08:38:04.296Z,97552.27
2018-11-28T08:42:59.575Z,97552.16
2018-11-28T08:47:58.982Z,97552.63
2018-11-28T08:52:54.688Z,97559.55
2018-11-28T08:57:50.163Z,97564.41
2018-11-28T09:02:45.794Z,97572.19
2018-11-28T09:07:40.643Z,97580.01
2018-11-28T09:13:04.498Z,97580.75
2018-11-28T09:18:00.053Z,97587.59
2018-11-28T09:22:55.218Z,97590.26
2018-11-28T09:27:58.481Z,97598.45
2018-11-28T09:32:59.552Z,97594.27
2018-11-28T09:37:54.260Z,97604.22
2018-11-28T09:42:58.937Z,97607.63
2018-11-28T09:47:54.969Z,97608.19
2018-11-28T09:52:49.641Z,97610.27
2018-11-28T09:57:44.781Z,97610.11
2018-11-28T10:02:39.445Z,97611.57
2018-11-28T10:07:34.360Z,97618.69
2018-11-28T10:12:29.835Z,97612.62
2018-11-28T10:17:24.589Z,97613.27
2018-11-28T10:22:19.171Z,97613.25
2018-11-28T10:27:27.647Z,97608.09
2018-11-28T10:32:22.530Z,97605.45
2018-11-28T10:37:17.099Z,97601.41
2018-11-28T10:42:11.772Z,97595.59
2018-11-28T10:47:06.478Z,97591.57
2018-11-28T10:52:01.451Z,97586.84
2018-11-28T10:56:56.645Z,97581.11
2018-11-28T11:01:52.500Z,97579.02
2018-11-28T11:06:52.278Z,97579.03
2018-11-28T11:11:52.330Z,97574.78
2018-11-28T11:16:46.790Z,97564.78
2018-11-28T11:21:41.836Z,97567.77
2018-11-28T11:26:36.678Z,97569.98
2018-11-28T11:31:31.658Z,97578.11
2018-11-28T11:36:26.549Z,97573.04
2018-11-28T11:41:21.212Z,97577.45
2018-11-28T11:46:18.182Z,97576.38
2018-11-28T11:51:12.958Z,97574.22
2018-11-28T11:56:09.186Z,97571.59
2018-11-28T12:01:04.156Z,97565.92
2018-11-28T12:05:59.995Z,97566.42
2018-11-28T12:10:54.696Z,97562.54
2018-11-28T12:15:49.489Z,97560.27
2018-11-28T12:20:56.823Z,97560.45
2018-11-28T12:25:51.487Z,97554.78
2018-11-28T12:30:46.168Z,97559.41
2018-11-28T12:35:42.791Z,97561.45
2018-11-28T12:40:39.187Z,97561.84
2018-11-28T12:45:33.907Z,97558.98
2018-11-28T12:50:29.779Z,97557.72
2018-11-28T12:55:25.199Z,97564.45
2018-11-28T13:00:23.054Z,97559.55
2018-11-28T13:05:19.111Z,97556.67
2018-11-28T13:10:20.364Z,97557.55
2018-11-28T13:15:18.995Z,97561.97
2018-11-28T13:20:17.142Z,97562.31
2018-11-28T13:25:18.034Z,97552.84
2018-11-28T13:30:17.877Z,97558.95
2018-11-28T13:35:15.023Z,97564.56
2018-11-28T13:40:13.188Z,97564.97
2018-11-28T13:45:12.250Z,97558.73
2018-11-28T13:50:09.404Z,97560.80
2018-11-28T13:55:37.406Z,97557.17
2018-11-28T13:59:58.930Z,97562.11
2018-11-28T14:05:00.836Z,97565.28
2018-11-28T14:09:55.815Z,97568.59
2018-11-28T14:14:50.307Z,97569.77
2018-11-28T14:19:45.107Z,97570.05
2018-11-28T14:24:49.817Z,97574.77
2018-11-28T14:29:51.277Z,97583.99
2018-11-28T14:34:46.123Z,97578.00
2018-11-28T14:39:40.729Z,97583.08
2018-11-28T14:44:35.694Z,97575.00
2018-11-28T14:49:31.691Z,97570.11
2018-11-28T14:54:26.225Z,97589.17
2018-11-28T14:59:20.933Z,97587.08
2018-11-28T15:04:15.839Z,97592.61
2018-11-28T15:09:16.582Z,97590.66
2018-11-28T15:14:11.430Z,97599.64
2018-11-28T15:19:06.393Z,97592.54
2018-11-28T15:24:01.915Z,97600.75
2018-11-28T15:28:56.617Z,97602.43
2018-11-28T15:33:51.375Z,97609.63
2018-11-28T15:38:45.950Z,97610.70
2018-11-28T15:43:40.592Z,97620.34
2018-11-28T15:48:36.479Z,97610.41
2018-11-28T15:53:31.308Z,97613.02
2018-11-28T15:58:26.664Z,97601.17
2018-11-28T16:03:21.403Z,97602.22
2018-11-28T16:08:16.080Z,97594.48
2018-11-28T16:13:11.808Z,97588.27
2018-11-28T16:18:06.688Z,97598.46
2018-11-28T16:23:04.058Z,97596.98
2018-11-28T16:27:56.784Z,97599.69
2018-11-28T16:32:51.371Z,97607.13
2018-11-28T16:37:46.314Z,97608.56
2018-11-28T16:42:40.839Z,97599.09
2018-11-28T16:47:35.443Z,97603.33
2018-11-28T16:52:29.992Z,97600.58
2018-11-28T16:57:27.335Z,97601.23
2018-11-28T17:02:21.956Z,97586.78
2018-11-28T17:07:16.533Z,97594.63
2018-11-28T17:12:13.890Z,97597.77
2018-11-28T17:17:08.462Z,97594.95
2018-11-28T17:22:05.701Z,97610.02
2018-11-28T17:27:00.314Z,97616.52
2018-11-28T17:31:54.836Z,97614.05
2018-11-28T17:36:49.360Z,97625.59
2018-11-28T17:41:43.828Z,97617.19
2018-11-28T17:46:38.355Z,97612.71
2018-11-28T17:51:33.575Z,97620.02
2018-11-28T17:56:28.139Z,97624.70
2018-11-28T18:01:22.815Z,97622.95
2018-11-28T18:06:17.356Z,97611.80
2018-11-28T18:11:13.652Z,97618.15
2018-11-28T18:16:11.916Z,97611.53
2018-11-28T18:21:06.107Z,97602.28
2018-11-28T18:26:01.455Z,97596.43
2018-11-28T18:30:56.696Z,97596.77
2018-11-28T18:35:51.281Z,97600.34
2018-11-28T18:40:45.781Z,97613.65
2018-11-28T18:45:46.850Z,97622.56
2018-11-28T18:50:41.348Z,97620.45
2018-11-28T18:55:35.831Z,97620.12
2018-11-28T19:00:30.444Z,97638.08
2018-11-28T19:05:25.029Z,97635.98
2018-11-28T19:10:26.200Z,97638.11
2018-11-28T19:15:22.663Z,97643.77
2018-11-28T19:20:19.460Z,97643.61
2018-11-28T19:25:15.546Z,97647.03
2018-11-28T19:30:19.384Z,97645.74
2018-11-28T19:35:14.065Z,97653.22
2018-11-28T19:40:13.575Z,97653.53
2018-11-28T19:45:09.192Z,97649.33
2018-11-28T19:50:04.500Z,97655.98
2018-11-28T19:54:59.191Z,97639.91
2018-11-28T19:59:53.972Z,97641.52
2018-11-28T20:04:48.852Z,97646.08
2018-11-28T20:09:43.415Z,97641.67
2018-11-28T20:14:38.028Z,97651.91
2018-11-28T20:19:32.622Z,97648.31
2018-11-28T20:24:27.225Z,97648.62
2018-11-28T20:29:21.744Z,97643.09
2018-11-28T20:34:16.332Z,97650.70
2018-11-28T20:39:11.063Z,97651.20
2018-11-28T20:44:05.812Z,97662.42
2018-11-28T20:49:00.265Z,97658.50
2018-11-28T20:53:54.883Z,97666.77
2018-11-28T20:58:49.460Z,97666.59
2018-11-28T21:03:44.014Z,97665.80
2018-11-28T21:08:38.582Z,97664.79
2018-11-28T21:13:33.118Z,97649.70
2018-11-28T21:18:27.827Z,97655.85
2018-11-28T21:23:22.383Z,97662.35
2018-11-28T21:28:16.974Z,97667.41
2018-11-28T21:33:13.388Z,97661.41
2018-11-28T21:38:09.194Z,97653.75
2018-11-28T21:43:03.761Z,97643.70
2018-11-28T21:47:58.272Z,97632.16
2018-11-28T21:52:52.839Z,97628.10
2018-11-28T21:57:47.589Z,97632.34
2018-11-28T22:02:42.309Z,97638.84
2018-11-28T22:07:36.958Z,97636.89
2018-11-28T22:12:32.032Z,97643.23
2018-11-28T22:17:26.587Z,97643.88
2018-11-28T22:22:21.147Z,97640.97
2018-11-28T22:27:15.627Z,97637.71
2018-11-28T22:32:10.109Z,97635.14
2018-11-28T22:37:04.675Z,97633.03
2018-11-28T22:41:59.174Z,97612.88
2018-11-28T22:46:53.698Z,97609.64
2018-11-28T22:51:48.163Z,97624.55
2018-11-28T22:56:42.645Z,97639.80
2018-11-28T23:04:04.189Z,97630.40
2018-11-28T23:08:58.758Z,97633.17
2018-11-28T23:13:53.260Z,97620.03
2018-11-28T23:18:47.827Z,97619.34
2018-11-28T23:23:42.350Z,97600.02
2018-11-28T23:28:36.985Z,97602.77
2018-11-28T23:33:31.459Z,97588.16
2018-11-28T23:38:25.930Z,97590.10
2018-11-28T23:43:20.447Z,97588.80
2018-11-28T23:48:14.956Z,97594.45
2018-11-28T23:53:09.415Z,97593.13
2018-11-28T23:58:03.898Z,97594.42
